Latest Coastal Weather Observations for Low Rocky Point

IDT60701

Issued at 11:25 am EDT Wednesday 22 October 2014 (issued every 10 minutes, with the page automatically refreshed every 10 minutes)

About coastal observations | Map of coastal stations | Coastal observations for TAS | Marine services | Other Formats
Station Details ID: 097080 Name: LOW ROCKY POINT Lat: -42.98 Lon: 145.50 Height: 34.0 m
Data from the previous 72 hours. | See also: Recent months at Low Rocky Point
Date/Time
EDT
Temp

°C
Wind Pressure Rain
since 9am
mm
Weather Cloud Vis
km
Sea
Height
m
Swell
Dir
 
Speed
knots
Gust
knots
hPa Trend Height
m
Period
s
Dir
22/11:00am 15.3 WNW 4 5 1016.2 - 0.0 - - - - - - -
22/10:30am 14.9 WNW 5 6 1016.6 - 0.0 - - - - - - -
22/10:00am 15.2 WNW 5 7 1016.9 - 0.0 - - - - - - -
22/09:30am 14.7 WNW 4 5 1016.9 - 0.0 - - - - - - -
22/09:00am 15.2 NW 4 5 1017.3 - 0.0 - - - - - - -
22/08:30am 14.4 N 5 7 1017.5 - 0.0 - - - - - - -
22/08:00am 12.1 NE 8 11 1017.9 - 0.0 - - - - - - -
22/07:30am 9.9 NNE 11 12 1018.0 - 0.0 - - - - - - -
22/07:00am 8.6 N 9 11 1018.3 - 0.0 - - - - - - -
22/06:30am 8.9 NNE 11 13 1018.6 - 0.0 - - - - - - -
22/06:00am 8.1 NNE 8 11 1018.6 - 0.0 - - - - - - -
22/05:30am 8.6 NE 7 8 1019.0 - 0.0 - - - - - - -
22/05:00am 8.5 ENE 8 9 1019.0 - 0.0 - - - - - - -
22/04:30am 9.2 NE 6 7 1019.5 - 0.0 - - - - - - -
22/04:00am 9.5 N 7 8 1020.1 - 0.0 - - - - - - -
22/03:30am 9.3 N 7 9 1020.5 - 0.0 - - - - - - -
22/03:00am 10.1 N 9 10 1020.7 - 0.0 - - - - - - -
22/02:30am 10.1 N 9 11 1021.4 - 0.0 - - - - - - -
22/02:00am 10.1 NNW 9 10 1022.0 - 0.0 - - - - - - -
22/01:30am 10.5 N 11 13 1022.3 - 0.0 - - - - - - -
22/01:00am 10.5 N 11 13 1022.6 - 0.0 - - - - - - -
22/12:30am 11.1 NNW 9 11 1023.0 - 0.0 - - - - - - -
22/12:00am 10.7 NNE 12 14 1023.2 - 0.0 - - - - - - -
 
Date/Time
EDT
Temp

°C
Wind Pressure Rain
since 9am
mm
Weather Cloud Vis
km
Sea
Height
m
Swell
Dir
 
Speed
knots
Gust
knots
hPa Trend Height
m
Period
s
Dir
21/11:30pm 10.7 NNE 13 14 1023.4 - 0.0 - - - - - - -
21/11:00pm 9.8 NNE 10 11 1024.0 - 0.0 - - - - - - -
21/10:30pm 9.0 N 6 9 1024.5 - 0.0 - - - - - - -
21/10:00pm 9.4 NE 6 7 1024.8 - 0.0 - - - - - - -
21/09:30pm 10.3 E 9 10 1025.0 - 0.0 - - - - - - -
21/09:00pm 11.7 ESE 12 14 1025.1 - 0.0 - - - - - - -
21/08:30pm 11.5 SE 10 12 1025.6 - 0.0 - - - - - - -
21/08:00pm 11.7 SE 11 13 1025.8 - 0.0 - - - - - - -
21/07:30pm 12.4 SE 12 14 1026.0 - 0.0 - - - - - - -
21/07:00pm 13.0 SSE 10 13 1026.4 - 0.0 - - - - - - -
21/06:30pm 13.7 SSE 11 14 1026.6 - 0.0 - - - - - - -
21/06:00pm 14.2 S 11 14 1027.1 - 0.0 - - - - - - -
21/05:30pm 14.7 SSE 12 15 1027.4 - 0.0 - - - - - - -
21/05:00pm 14.8 SSE 13 16 1027.5 - 0.0 - - - - - - -
21/04:30pm 15.6 SSE 12 16 1028.1 - 0.0 - - - - - - -
21/04:00pm 15.8 S 11 16 1028.5 - 0.0 - - - - - - -
21/03:30pm 15.7 S 11 15 1028.8 - 0.0 - - - - - - -
21/03:00pm 16.0 S 10 13 1029.2 - 0.0 - - - - - - -
21/02:30pm 16.6 SSW 9 14 1029.4 - 0.0 - - - - - - -
21/02:00pm 16.6 S 10 13 1029.7 - 0.0 - - - - - - -
21/01:30pm 16.5 S 10 13 1030.0 - 0.0 - - - - - - -
21/01:00pm 16.3 S 10 14 1030.2 - 0.0 - - - - - - -
21/12:30pm 15.7 S 12 15 1030.2 - 0.0 - - - - - - -
21/12:00pm 16.2 S 11 15 1030.6 - 0.0 - - - - - - -
21/11:30am 15.5 SSW 10 11 1031.0 - 0.0 - - - - - - -
21/11:00am 14.8 S 8 10 1031.4 - 0.0 - - - - - - -
21/10:30am 14.4 SSE 7 9 1031.8 - 0.0 - - - - - - -
21/10:00am 14.6 SE 7 9 1032.0 - 0.0 - - - - - - -
21/09:30am 14.0 ESE 8 9 1032.2 - 0.0 - - - - - - -
21/09:00am 13.1 ENE 6 9 1032.3 - 0.0 - - - - - - -
21/08:30am 11.7 NE 8 10 1032.4 - 0.0 - - - - - - -
21/08:00am 9.4 NE 8 10 1032.5 - 0.0 - - - - - - -
21/07:30am 7.9 NE 9 11 1032.6 - 0.0 - - - - - - -
21/07:00am 6.7 NNE 10 11 1032.6 - 0.0 - - - - - - -
21/06:30am 6.1 NNE 11 11 1032.5 - 0.0 - - - - - - -
21/06:00am 6.4 NNE 9 10 1032.2 - 0.0 - - - - - - -
21/05:30am 6.1 NNE 10 11 1032.2 - 0.0 - - - - - - -
21/05:00am 6.3 NNE 10 12 1031.9 - 0.0 - - - - - - -
21/04:30am 6.7 N 11 12 1031.8 - 0.0 - - - - - - -
21/04:00am 7.0 N 11 13 1031.8 - 0.0 - - - - - - -
21/03:30am 6.8 N 11 13 1031.8 - 0.0 - - - - - - -
21/03:00am 6.2 N 12 14 1031.9 - 0.0 - - - - - - -
21/02:30am 6.1 N 11 12 1032.3 - 0.0 - - - - - - -
21/02:00am 6.0 NNE 10 11 1032.6 - 0.0 - - - - - - -
21/01:30am 6.4 NE 8 9 1032.8 - 0.0 - - - - - - -
21/01:00am 6.5 N 8 9 1032.9 - 0.0 - - - - - - -
21/12:30am 6.2 NE 7 8 1032.8 - 0.0 - - - - - - -
21/12:00am 6.6 ENE 7 8 1032.9 - 0.0 - - - - - - -
 
Date/Time
EDT
Temp

°C
Wind Pressure Rain
since 9am
mm
Weather Cloud Vis
km
Sea
Height
m
Swell
Dir
 
Speed
knots
Gust
knots
hPa Trend Height
m
Period
s
Dir
20/11:30pm 7.9 ESE 7 9 1032.9 - 0.0 - - - - - - -
20/11:00pm 8.7 SE 10 12 1033.0 - 0.0 - - - - - - -
20/10:30pm 8.9 SE 13 15 1033.2 - 0.0 - - - - - - -
20/10:00pm 9.1 SE 15 19 1033.2 - 0.0 - - - - - - -
20/09:30pm 9.1 SE 15 19 1033.5 - 0.0 - - - - - - -
20/09:00pm 9.3 SE 16 20 1033.5 - 0.0 - - - - - - -
20/08:30pm 9.3 SE 15 21 1033.6 - 0.0 - - - - - - -
20/08:00pm 9.1 SSE 13 16 1033.6 - 0.0 - - - - - - -
20/07:30pm 9.5 SSE 13 16 1033.8 - 0.0 - - - - - - -
20/07:00pm 10.2 SSE 12 17 1033.7 - 0.0 - - - - - - -
20/06:30pm 11.1 SSE 11 15 1033.8 - 0.0 - - - - - - -
20/06:00pm 11.8 S 11 15 1034.0 - 0.0 - - - - - - -
20/05:30pm 12.4 S 10 14 1034.1 - 0.0 - - - - - - -
20/05:00pm 12.9 S 10 13 1034.2 - 0.0 - - - - - - -
20/04:30pm 12.7 S 10 13 1034.1 - 0.0 - - - - - - -
20/04:00pm 12.7 S 11 13 1034.1 - 0.0 - - - - - - -
20/03:30pm 13.5 S 10 14 1034.1 - 0.0 - - - - - - -
20/03:00pm 13.4 SSW 10 14 1034.3 - 0.0 - - - - - - -
20/02:30pm 13.0 S 10 13 1034.6 - 0.0 - - - - - - -
20/02:00pm 13.5 S 9 13 1034.6 - 0.0 - - - - - - -
20/01:30pm 13.2 S 9 13 1034.7 - 0.0 - - - - - - -
20/01:00pm 12.9 S 9 11 1035.0 - 0.0 - - - - - - -
20/12:30pm 13.3 S 8 11 1035.1 - 0.0 - - - - - - -
20/12:00pm 12.0 S 7 11 1035.3 - 0.0 - - - - - - -
20/11:30am 11.1 S 8 11 1035.3 - 0.0 - - - - - - -
20/11:00am 10.9 SW 6 9 1035.3 - 0.0 - - - - - - -
20/10:30am 10.7 S 5 8 1035.1 - 0.0 - - - - - - -
20/10:00am 11.0 ESE 4 6 1034.9 - 0.0 - - - - - - -
20/09:30am 10.7 E 4 6 1034.6 - 0.0 - - - - - - -
20/09:00am 10.0 E 5 8 1034.1 - 5.6 - - - - - - -
20/08:30am 10.6 E 7 9 1033.8 - 5.6 - - - - - - -
20/08:00am 9.9 ESE 4 6 1033.3 - 5.6 - - - - - - -
20/07:30am 10.0 ESE 6 9 1032.9 - 5.6 - - - - - - -
20/07:00am 8.5 S 7 10 1032.4 - 5.6 - - - - - - -
20/06:30am 7.5 S 9 11 1032.0 - 5.6 - - - - - - -
20/06:00am 7.7 S 9 12 1031.6 - 5.6 - - - - - - -
20/05:30am 7.7 S 11 15 1031.4 - 5.6 - - - - - - -
20/05:00am 7.6 S 13 17 1030.9 - 5.6 - - - - - - -
20/04:30am 7.9 S 14 18 1030.9 - 5.6 - - - - - - -
20/04:00am 7.7 S 11 17 1030.5 - 5.6 - - - - - - -
20/03:30am 7.9 S 12 17 1030.6 - 5.6 - - - - - - -
20/03:00am 7.9 S 13 17 1030.6 - 5.6 - - - - - - -
20/02:30am 8.1 S 14 20 1030.3 - 5.6 - - - - - - -
20/02:00am 8.3 S 15 21 1029.9 - 5.6 - - - - - - -
20/01:30am 8.0 SW 10 14 1029.6 - 5.6 - - - - - - -
20/01:00am 7.6 SW 15 25 1029.7 - 5.6 - - - - - - -
20/12:46am 8.2 SSW 15 25 1029.4 - 5.6 - - - - - - -
20/12:30am 8.2 S 13 18 1029.1 - 5.6 - - - - - - -
20/12:00am 8.1 SSW 14 19 1028.9 - 5.6 - - - - - - -
 
Date/Time
EDT
Temp

°C
Wind Pressure Rain
since 9am
mm
Weather Cloud Vis
km
Sea
Height
m
Swell
Dir
 
Speed
knots
Gust
knots
hPa Trend Height
m
Period
s
Dir
19/11:30pm 8.3 S 16 22 1028.5 - 5.6 - - - - - - -
19/11:00pm 8.4 S 15 21 1027.9 - 5.6 - - - - - - -
19/10:30pm 8.4 SSW 15 22 1027.6 - 5.6 - - - - - - -
19/10:00pm 8.6 SSW 16 25 1027.3 - 5.6 - - - - - - -
19/09:39pm 8.9 SSW 15 25 1026.9 - 5.6 - - - - - - -
19/09:30pm 8.8 SSW 14 21 1026.7 - 5.6 - - - - - - -
19/09:00pm 8.3 SW 13 19 1026.2 - 5.6 - - - - - - -
19/08:30pm 7.3 SW 18 32 1025.7 - 5.6 - - - - - - -
19/08:16pm 8.9 SW 18 35 1025.2 - 5.6 - - - - - - -
19/08:00pm 9.0 SW 17 24 1024.6 - 5.6 - - - - - - -
19/07:30pm 8.6 SW 15 21 1023.8 - 5.6 - - - - - - -
19/07:00pm 8.7 SW 17 22 1023.1 - 5.6 - - - - - - -
19/06:57pm 8.8 SW 17 27 1023.1 - 5.6 - - - - - - -
19/06:30pm 9.9 SW 16 23 1022.3 - 5.6 - - - - - - -
19/06:00pm 8.4 SW 16 25 1021.8 - 5.6 Recent precip. - - - - - -
19/05:47pm 8.9 SW 15 26 1021.5 - 5.6 - - - - - - -
19/05:30pm 8.7 SW 17 24 1021.0 - 5.6 - - - - - - -
19/05:00pm 8.6 SW 14 21 1020.6 - 5.0 - - - - - - -
19/04:30pm 9.3 W 17 21 1020.3 - 4.6 - - - - - - -
19/04:00pm 9.0 WSW 16 22 1020.0 - 4.4 - - - - - - -
19/03:39pm 9.0 WSW 21 27 1019.9 - 4.0 - - - - - - -
19/03:30pm 9.5 W 19 23 1019.6 - 3.6 - - - - - - -
19/03:00pm 9.3 W 18 23 1019.4 - 2.8 Recent precip. - - - - - -
19/02:30pm 9.6 W 17 22 1019.3 - 2.6 - - - - - - -
19/02:00pm 9.8 W 16 21 1019.5 - 2.2 - - - - - - -
19/01:30pm 9.7 W 17 21 1019.3 - 1.2 - - - - - - -
19/01:00pm 9.8 W 18 22 1019.3 - 0.4 - - - - - - -
19/12:30pm 10.4 WSW 18 25 1018.6 - 0.0 - - - - - - -
19/12:00pm 11.1 WSW 20 25 1018.7 - 0.0 - - - - - - -
19/11:55am 11.5 WSW 21 25 1018.5 - 0.0 - - - - - - -
19/11:30am 12.4 W 21 25 1018.6 - 0.0 - - - - - - -

Other Formats:

Comma delimited format used in spreadsheet applications
http://www.bom.gov.au/fwo/IDT60701/IDT60701.95961.axf

JavaScript Object Notation format (JSON) in row-major order
http://www.bom.gov.au/fwo/IDT60701/IDT60701.95961.json